sensor_id;sensor_type;location;lat;lon;timestamp;P1;durP1;ratioP1;P2;durP2;ratioP2
76896;SDS011;65856;52.178;21.176;2023-11-18T00:01:25;17.20;;;9.50;;
76896;SDS011;65856;52.178;21.176;2023-11-18T00:03:56;15.40;;;9.40;;
76896;SDS011;65856;52.178;21.176;2023-11-18T00:06:21;18.20;;;9.80;;
76896;SDS011;65856;52.178;21.176;2023-11-18T00:08:46;17.70;;;9.60;;
76896;SDS011;65856;52.178;21.176;2023-11-18T00:11:12;16.80;;;9.20;;
76896;SDS011;65856;52.178;21.176;2023-11-18T00:13:38;15.90;;;9.30;;
76896;SDS011;65856;52.178;21.176;2023-11-18T00:16:05;17.20;;;9.40;;
76896;SDS011;65856;52.178;21.176;2023-11-18T00:18:32;17.80;;;8.80;;
76896;SDS011;65856;52.178;21.176;2023-11-18T00:20:58;14.40;;;7.70;;
76896;SDS011;65856;52.178;21.176;2023-11-18T00:23:24;13.00;;;7.70;;
76896;SDS011;65856;52.178;21.176;2023-11-18T00:25:52;14.40;;;7.80;;
76896;SDS011;65856;52.178;21.176;2023-11-18T00:28:18;13.10;;;7.60;;
76896;SDS011;65856;52.178;21.176;2023-11-18T00:30:45;14.40;;;7.70;;
76896;SDS011;65856;52.178;21.176;2023-11-18T00:33:10;15.00;;;7.50;;
76896;SDS011;65856;52.178;21.176;2023-11-18T00:35:36;12.10;;;7.80;;
76896;SDS011;65856;52.178;21.176;2023-11-18T00:38:02;12.90;;;7.50;;
76896;SDS011;65856;52.178;21.176;2023-11-18T00:40:27;11.70;;;7.30;;
76896;SDS011;65856;52.178;21.176;2023-11-18T00:42:55;11.60;;;7.10;;
76896;SDS011;65856;52.178;21.176;2023-11-18T00:45:21;12.70;;;7.20;;
76896;SDS011;65856;52.178;21.176;2023-11-18T00:47:47;12.30;;;7.50;;
76896;SDS011;65856;52.178;21.176;2023-11-18T00:50:13;15.10;;;7.70;;
76896;SDS011;65856;52.178;21.176;2023-11-18T00:52:39;12.90;;;7.50;;
76896;SDS011;65856;52.178;21.176;2023-11-18T00:55:09;12.50;;;7.50;;
76896;SDS011;65856;52.178;21.176;2023-11-18T00:57:36;13.60;;;7.40;;
76896;SDS011;65856;52.178;21.176;2023-11-18T01:00:08;12.10;;;7.30;;
76896;SDS011;65856;52.178;21.176;2023-11-18T01:02:42;14.20;;;7.70;;
76896;SDS011;65856;52.178;21.176;2023-11-18T01:05:08;11.20;;;7.30;;
76896;SDS011;65856;52.178;21.176;2023-11-18T01:07:36;13.10;;;7.50;;
76896;SDS011;65856;52.178;21.176;2023-11-18T01:10:04;11.40;;;7.10;;
76896;SDS011;65856;52.178;21.176;2023-11-18T01:12:31;12.50;;;7.30;;
76896;SDS011;65856;52.178;21.176;2023-11-18T01:14:56;12.50;;;7.50;;
76896;SDS011;65856;52.178;21.176;2023-11-18T01:17:22;13.40;;;7.10;;
76896;SDS011;65856;52.178;21.176;2023-11-18T01:19:47;13.10;;;7.10;;
76896;SDS011;65856;52.178;21.176;2023-11-18T01:22:13;10.50;;;6.70;;
76896;SDS011;65856;52.178;21.176;2023-11-18T01:24:38;11.60;;;6.80;;
76896;SDS011;65856;52.178;21.176;2023-11-18T01:27:04;11.50;;;6.20;;
76896;SDS011;65856;52.178;21.176;2023-11-18T01:29:30;11.30;;;6.40;;
76896;SDS011;65856;52.178;21.176;2023-11-18T01:31:56;10.70;;;6.90;;
76896;SDS011;65856;52.178;21.176;2023-11-18T01:34:22;10.20;;;6.20;;
76896;SDS011;65856;52.178;21.176;2023-11-18T01:36:48;11.20;;;6.30;;
76896;SDS011;65856;52.178;21.176;2023-11-18T01:39:15;9.90;;;5.90;;
76896;SDS011;65856;52.178;21.176;2023-11-18T01:41:46;12.10;;;6.20;;
76896;SDS011;65856;52.178;21.176;2023-11-18T01:44:11;10.50;;;6.20;;
76896;SDS011;65856;52.178;21.176;2023-11-18T01:46:40;11.70;;;7.00;;
76896;SDS011;65856;52.178;21.176;2023-11-18T01:49:10;10.00;;;6.30;;
76896;SDS011;65856;52.178;21.176;2023-11-18T01:51:36;10.30;;;6.00;;
76896;SDS011;65856;52.178;21.176;2023-11-18T01:54:03;9.60;;;6.00;;
76896;SDS011;65856;52.178;21.176;2023-11-18T01:56:30;10.50;;;6.10;;
76896;SDS011;65856;52.178;21.176;2023-11-18T01:58:57;9.10;;;5.60;;
76896;SDS011;65856;52.178;21.176;2023-11-18T02:01:26;9.50;;;5.50;;
76896;SDS011;65856;52.178;21.176;2023-11-18T02:03:53;8.80;;;5.50;;
76896;SDS011;65856;52.178;21.176;2023-11-18T02:06:18;10.10;;;6.20;;
76896;SDS011;65856;52.178;21.176;2023-11-18T02:08:46;8.80;;;5.80;;
76896;SDS011;65856;52.178;21.176;2023-11-18T02:14:54;8.50;;;5.00;;
76896;SDS011;65856;52.178;21.176;2023-11-18T02:17:22;9.10;;;5.60;;
76896;SDS011;65856;52.178;21.176;2023-11-18T02:19:55;8.40;;;5.20;;
76896;SDS011;65856;52.178;21.176;2023-11-18T02:22:23;9.10;;;5.20;;
76896;SDS011;65856;52.178;21.176;2023-11-18T02:24:49;9.10;;;5.60;;
76896;SDS011;65856;52.178;21.176;2023-11-18T02:27:15;7.90;;;5.00;;
76896;SDS011;65856;52.178;21.176;2023-11-18T02:29:45;7.30;;;5.00;;
76896;SDS011;65856;52.178;21.176;2023-11-18T02:32:39;7.80;;;5.20;;
76896;SDS011;65856;52.178;21.176;2023-11-18T02:35:18;7.40;;;5.00;;
76896;SDS011;65856;52.178;21.176;2023-11-18T02:37:52;9.10;;;5.20;;
76896;SDS011;65856;52.178;21.176;2023-11-18T02:40:26;8.50;;;4.60;;
76896;SDS011;65856;52.178;21.176;2023-11-18T02:42:57;7.80;;;4.90;;
76896;SDS011;65856;52.178;21.176;2023-11-18T02:45:25;7.60;;;5.00;;
76896;SDS011;65856;52.178;21.176;2023-11-18T02:47:52;7.60;;;4.90;;
76896;SDS011;65856;52.178;21.176;2023-11-18T02:50:26;7.70;;;4.80;;
76896;SDS011;65856;52.178;21.176;2023-11-18T02:52:55;6.40;;;4.40;;
76896;SDS011;65856;52.178;21.176;2023-11-18T02:55:21;6.70;;;4.60;;
76896;SDS011;65856;52.178;21.176;2023-11-18T02:57:48;6.30;;;4.20;;
76896;SDS011;65856;52.178;21.176;2023-11-18T03:00:17;6.40;;;4.30;;
76896;SDS011;65856;52.178;21.176;2023-11-18T03:02:49;6.70;;;4.40;;
76896;SDS011;65856;52.178;21.176;2023-11-18T03:05:17;7.00;;;4.30;;
76896;SDS011;65856;52.178;21.176;2023-11-18T03:07:44;7.00;;;4.30;;
76896;SDS011;65856;52.178;21.176;2023-11-18T03:10:15;8.30;;;5.30;;
76896;SDS011;65856;52.178;21.176;2023-11-18T03:12:48;6.80;;;4.20;;
76896;SDS011;65856;52.178;21.176;2023-11-18T03:15:15;7.40;;;4.10;;
76896;SDS011;65856;52.178;21.176;2023-11-18T03:17:46;7.20;;;4.50;;
76896;SDS011;65856;52.178;21.176;2023-11-18T03:20:14;6.10;;;3.80;;
76896;SDS011;65856;52.178;21.176;2023-11-18T03:22:47;7.10;;;4.10;;
76896;SDS011;65856;52.178;21.176;2023-11-18T03:25:13;6.10;;;3.90;;
76896;SDS011;65856;52.178;21.176;2023-11-18T03:27:39;5.80;;;3.80;;
76896;SDS011;65856;52.178;21.176;2023-11-18T03:30:06;5.30;;;3.60;;
76896;SDS011;65856;52.178;21.176;2023-11-18T03:32:36;5.20;;;3.60;;
76896;SDS011;65856;52.178;21.176;2023-11-18T03:35:04;4.70;;;3.40;;
76896;SDS011;65856;52.178;21.176;2023-11-18T03:37:40;4.90;;;3.20;;
76896;SDS011;65856;52.178;21.176;2023-11-18T03:40:13;4.60;;;3.20;;
76896;SDS011;65856;52.178;21.176;2023-11-18T03:42:43;4.90;;;3.10;;
76896;SDS011;65856;52.178;21.176;2023-11-18T03:45:11;4.80;;;3.30;;
76896;SDS011;65856;52.178;21.176;2023-11-18T03:47:37;6.00;;;3.50;;
76896;SDS011;65856;52.178;21.176;2023-11-18T03:50:03;4.50;;;3.20;;
76896;SDS011;65856;52.178;21.176;2023-11-18T03:52:30;8.60;;;3.40;;
76896;SDS011;65856;52.178;21.176;2023-11-18T03:54:55;4.50;;;3.30;;
76896;SDS011;65856;52.178;21.176;2023-11-18T03:57:21;3.90;;;3.00;;
76896;SDS011;65856;52.178;21.176;2023-11-18T03:59:47;4.20;;;3.20;;
76896;SDS011;65856;52.178;21.176;2023-11-18T04:02:12;4.00;;;2.70;;
76896;SDS011;65856;52.178;21.176;2023-11-18T04:04:38;5.10;;;2.90;;
76896;SDS011;65856;52.178;21.176;2023-11-18T04:07:04;4.70;;;3.30;;
76896;SDS011;65856;52.178;21.176;2023-11-18T04:09:31;4.20;;;2.70;;
76896;SDS011;65856;52.178;21.176;2023-11-18T04:11:57;4.10;;;2.90;;
76896;SDS011;65856;52.178;21.176;2023-11-18T04:14:23;4.30;;;3.10;;
76896;SDS011;65856;52.178;21.176;2023-11-18T04:16:51;3.90;;;2.70;;
76896;SDS011;65856;52.178;21.176;2023-11-18T04:19:17;5.40;;;2.60;;
76896;SDS011;65856;52.178;21.176;2023-11-18T04:21:43;4.50;;;2.70;;
76896;SDS011;65856;52.178;21.176;2023-11-18T04:24:12;4.90;;;3.00;;
76896;SDS011;65856;52.178;21.176;2023-11-18T04:26:38;3.70;;;2.90;;
76896;SDS011;65856;52.178;21.176;2023-11-18T04:29:03;4.40;;;2.80;;
76896;SDS011;65856;52.178;21.176;2023-11-18T04:31:29;3.80;;;2.60;;
76896;SDS011;65856;52.178;21.176;2023-11-18T04:33:54;4.20;;;2.80;;
76896;SDS011;65856;52.178;21.176;2023-11-18T04:36:21;5.50;;;2.80;;
76896;SDS011;65856;52.178;21.176;2023-11-18T04:38:47;4.10;;;2.70;;
76896;SDS011;65856;52.178;21.176;2023-11-18T04:41:14;6.50;;;2.90;;
76896;SDS011;65856;52.178;21.176;2023-11-18T04:43:40;3.70;;;2.60;;
76896;SDS011;65856;52.178;21.176;2023-11-18T04:46:07;4.20;;;2.70;;
76896;SDS011;65856;52.178;21.176;2023-11-18T04:48:33;5.50;;;3.20;;
76896;SDS011;65856;52.178;21.176;2023-11-18T04:51:00;4.10;;;2.80;;
76896;SDS011;65856;52.178;21.176;2023-11-18T04:53:26;3.20;;;2.50;;
76896;SDS011;65856;52.178;21.176;2023-11-18T04:55:52;6.20;;;3.20;;
76896;SDS011;65856;52.178;21.176;2023-11-18T04:58:18;4.00;;;2.70;;
76896;SDS011;65856;52.178;21.176;2023-11-18T05:00:44;4.20;;;2.60;;
76896;SDS011;65856;52.178;21.176;2023-11-18T05:03:10;4.50;;;2.60;;
76896;SDS011;65856;52.178;21.176;2023-11-18T05:05:39;4.30;;;2.70;;
76896;SDS011;65856;52.178;21.176;2023-11-18T05:08:06;4.60;;;2.60;;
76896;SDS011;65856;52.178;21.176;2023-11-18T05:10:35;3.90;;;2.70;;
76896;SDS011;65856;52.178;21.176;2023-11-18T05:13:02;3.60;;;2.70;;
76896;SDS011;65856;52.178;21.176;2023-11-18T05:15:28;4.30;;;2.90;;
76896;SDS011;65856;52.178;21.176;2023-11-18T05:17:54;4.00;;;2.60;;
76896;SDS011;65856;52.178;21.176;2023-11-18T05:20:20;5.60;;;2.80;;
76896;SDS011;65856;52.178;21.176;2023-11-18T05:22:47;3.90;;;2.50;;
76896;SDS011;65856;52.178;21.176;2023-11-18T05:25:13;3.80;;;2.50;;
76896;SDS011;65856;52.178;21.176;2023-11-18T05:27:39;3.60;;;2.70;;
76896;SDS011;65856;52.178;21.176;2023-11-18T05:30:06;3.90;;;2.60;;
76896;SDS011;65856;52.178;21.176;2023-11-18T05:32:33;3.90;;;2.80;;
76896;SDS011;65856;52.178;21.176;2023-11-18T05:34:59;3.80;;;2.80;;
76896;SDS011;65856;52.178;21.176;2023-11-18T05:37:24;4.80;;;2.60;;
76896;SDS011;65856;52.178;21.176;2023-11-18T05:39:53;3.10;;;2.30;;
76896;SDS011;65856;52.178;21.176;2023-11-18T05:42:27;3.10;;;2.20;;
76896;SDS011;65856;52.178;21.176;2023-11-18T05:44:53;3.20;;;2.20;;
76896;SDS011;65856;52.178;21.176;2023-11-18T05:47:27;4.80;;;2.40;;
76896;SDS011;65856;52.178;21.176;2023-11-18T05:49:54;3.70;;;2.60;;
76896;SDS011;65856;52.178;21.176;2023-11-18T05:52:20;4.40;;;2.70;;
76896;SDS011;65856;52.178;21.176;2023-11-18T05:54:47;4.10;;;2.50;;
76896;SDS011;65856;52.178;21.176;2023-11-18T05:57:15;3.90;;;2.60;;
76896;SDS011;65856;52.178;21.176;2023-11-18T05:59:42;4.50;;;2.50;;
76896;SDS011;65856;52.178;21.176;2023-11-18T06:02:08;3.30;;;2.30;;
76896;SDS011;65856;52.178;21.176;2023-11-18T06:04:38;4.60;;;2.70;;
76896;SDS011;65856;52.178;21.176;2023-11-18T06:07:03;3.60;;;2.50;;
76896;SDS011;65856;52.178;21.176;2023-11-18T06:09:30;3.50;;;2.60;;
76896;SDS011;65856;52.178;21.176;2023-11-18T06:11:55;3.60;;;2.40;;
76896;SDS011;65856;52.178;21.176;2023-11-18T06:14:21;3.20;;;2.10;;
76896;SDS011;65856;52.178;21.176;2023-11-18T06:16:49;3.20;;;2.20;;
76896;SDS011;65856;52.178;21.176;2023-11-18T06:19:15;3.20;;;2.40;;
76896;SDS011;65856;52.178;21.176;2023-11-18T06:21:41;4.20;;;2.30;;
76896;SDS011;65856;52.178;21.176;2023-11-18T06:24:07;2.80;;;2.10;;
76896;SDS011;65856;52.178;21.176;2023-11-18T06:26:36;5.20;;;3.40;;
76896;SDS011;65856;52.178;21.176;2023-11-18T06:29:03;5.20;;;2.80;;
76896;SDS011;65856;52.178;21.176;2023-11-18T06:31:31;4.80;;;3.10;;
76896;SDS011;65856;52.178;21.176;2023-11-18T06:33:58;13.10;;;6.10;;
76896;SDS011;65856;52.178;21.176;2023-11-18T06:36:23;7.30;;;3.80;;
76896;SDS011;65856;52.178;21.176;2023-11-18T06:38:52;4.80;;;2.90;;
76896;SDS011;65856;52.178;21.176;2023-11-18T06:41:20;5.60;;;3.00;;
76896;SDS011;65856;52.178;21.176;2023-11-18T06:44:00;5.50;;;2.50;;
76896;SDS011;65856;52.178;21.176;2023-11-18T06:46:34;9.10;;;3.10;;
76896;SDS011;65856;52.178;21.176;2023-11-18T06:49:02;5.00;;;2.90;;
76896;SDS011;65856;52.178;21.176;2023-11-18T06:51:29;6.10;;;3.00;;
76896;SDS011;65856;52.178;21.176;2023-11-18T06:54:00;4.70;;;2.80;;
76896;SDS011;65856;52.178;21.176;2023-11-18T06:56:29;6.20;;;2.70;;
76896;SDS011;65856;52.178;21.176;2023-11-18T06:58:55;5.80;;;2.90;;
76896;SDS011;65856;52.178;21.176;2023-11-18T07:01:21;4.70;;;2.70;;
76896;SDS011;65856;52.178;21.176;2023-11-18T07:03:47;5.40;;;2.60;;
76896;SDS011;65856;52.178;21.176;2023-11-18T07:06:20;6.80;;;2.70;;
76896;SDS011;65856;52.178;21.176;2023-11-18T07:08:52;6.00;;;2.90;;
76896;SDS011;65856;52.178;21.176;2023-11-18T07:11:20;8.60;;;3.10;;
76896;SDS011;65856;52.178;21.176;2023-11-18T07:13:47;2.90;;;2.20;;
76896;SDS011;65856;52.178;21.176;2023-11-18T07:16:14;5.40;;;3.00;;
76896;SDS011;65856;52.178;21.176;2023-11-18T07:18:41;5.80;;;3.30;;
76896;SDS011;65856;52.178;21.176;2023-11-18T07:21:10;4.50;;;2.60;;
76896;SDS011;65856;52.178;21.176;2023-11-18T07:23:36;5.90;;;3.20;;
76896;SDS011;65856;52.178;21.176;2023-11-18T07:26:02;5.30;;;2.90;;
76896;SDS011;65856;52.178;21.176;2023-11-18T07:28:29;5.20;;;2.80;;
76896;SDS011;65856;52.178;21.176;2023-11-18T07:30:56;7.10;;;4.40;;
76896;SDS011;65856;52.178;21.176;2023-11-18T07:33:23;4.20;;;3.10;;
76896;SDS011;65856;52.178;21.176;2023-11-18T07:35:49;5.70;;;3.40;;
76896;SDS011;65856;52.178;21.176;2023-11-18T07:38:15;4.90;;;3.10;;
76896;SDS011;65856;52.178;21.176;2023-11-18T07:40:42;5.90;;;3.40;;
76896;SDS011;65856;52.178;21.176;2023-11-18T07:43:16;5.20;;;2.80;;
76896;SDS011;65856;52.178;21.176;2023-11-18T07:45:42;5.90;;;3.20;;
76896;SDS011;65856;52.178;21.176;2023-11-18T07:48:09;6.20;;;4.00;;
76896;SDS011;65856;52.178;21.176;2023-11-18T07:50:37;4.60;;;2.60;;
76896;SDS011;65856;52.178;21.176;2023-11-18T07:53:06;5.60;;;3.30;;
76896;SDS011;65856;52.178;21.176;2023-11-18T07:55:33;6.00;;;3.70;;
76896;SDS011;65856;52.178;21.176;2023-11-18T07:58:02;6.80;;;3.80;;
76896;SDS011;65856;52.178;21.176;2023-11-18T08:00:29;5.80;;;3.60;;
76896;SDS011;65856;52.178;21.176;2023-11-18T08:02:58;5.90;;;3.70;;
76896;SDS011;65856;52.178;21.176;2023-11-18T08:05:26;5.90;;;4.00;;
76896;SDS011;65856;52.178;21.176;2023-11-18T08:07:53;6.40;;;4.00;;
76896;SDS011;65856;52.178;21.176;2023-11-18T08:10:19;5.90;;;3.50;;
76896;SDS011;65856;52.178;21.176;2023-11-18T08:12:45;5.10;;;3.50;;
76896;SDS011;65856;52.178;21.176;2023-11-18T08:15:12;5.40;;;3.40;;
76896;SDS011;65856;52.178;21.176;2023-11-18T08:17:39;5.90;;;3.60;;
76896;SDS011;65856;52.178;21.176;2023-11-18T08:20:04;6.90;;;4.30;;
76896;SDS011;65856;52.178;21.176;2023-11-18T08:22:41;5.90;;;3.60;;
76896;SDS011;65856;52.178;21.176;2023-11-18T08:25:10;6.90;;;4.30;;
76896;SDS011;65856;52.178;21.176;2023-11-18T08:27:40;8.00;;;4.70;;
76896;SDS011;65856;52.178;21.176;2023-11-18T08:30:07;8.60;;;4.60;;
76896;SDS011;65856;52.178;21.176;2023-11-18T08:32:41;7.10;;;4.20;;
76896;SDS011;65856;52.178;21.176;2023-11-18T08:35:13;6.90;;;4.50;;
76896;SDS011;65856;52.178;21.176;2023-11-18T08:37:41;7.90;;;5.00;;
76896;SDS011;65856;52.178;21.176;2023-11-18T08:40:11;8.30;;;5.80;;
76896;SDS011;65856;52.178;21.176;2023-11-18T08:42:52;7.40;;;4.50;;
76896;SDS011;65856;52.178;21.176;2023-11-18T08:45:22;9.70;;;5.70;;
76896;SDS011;65856;52.178;21.176;2023-11-18T08:47:55;7.40;;;4.90;;
76896;SDS011;65856;52.178;21.176;2023-11-18T08:50:22;11.40;;;7.40;;
76896;SDS011;65856;52.178;21.176;2023-11-18T08:52:50;7.70;;;4.60;;
76896;SDS011;65856;52.178;21.176;2023-11-18T08:55:27;7.70;;;5.20;;
76896;SDS011;65856;52.178;21.176;2023-11-18T08:58:35;5.70;;;4.10;;
76896;SDS011;65856;52.178;21.176;2023-11-18T09:01:02;7.80;;;4.90;;
76896;SDS011;65856;52.178;21.176;2023-11-18T09:03:38;8.90;;;5.60;;
76896;SDS011;65856;52.178;21.176;2023-11-18T09:06:11;8.70;;;5.20;;
76896;SDS011;65856;52.178;21.176;2023-11-18T09:08:47;8.70;;;5.10;;
76896;SDS011;65856;52.178;21.176;2023-11-18T09:11:18;8.40;;;5.00;;
76896;SDS011;65856;52.178;21.176;2023-11-18T09:13:48;9.10;;;5.20;;
76896;SDS011;65856;52.178;21.176;2023-11-18T09:16:20;7.30;;;4.40;;
76896;SDS011;65856;52.178;21.176;2023-11-18T09:18:47;8.30;;;4.80;;
76896;SDS011;65856;52.178;21.176;2023-11-18T09:21:14;10.60;;;5.80;;
76896;SDS011;65856;52.178;21.176;2023-11-18T09:23:41;12.80;;;5.70;;
76896;SDS011;65856;52.178;21.176;2023-11-18T09:26:08;12.40;;;7.00;;
76896;SDS011;65856;52.178;21.176;2023-11-18T09:28:36;8.80;;;5.80;;
76896;SDS011;65856;52.178;21.176;2023-11-18T09:31:04;8.90;;;4.30;;
76896;SDS011;65856;52.178;21.176;2023-11-18T09:33:32;8.80;;;4.70;;
76896;SDS011;65856;52.178;21.176;2023-11-18T09:36:07;10.90;;;5.60;;
76896;SDS011;65856;52.178;21.176;2023-11-18T09:38:38;7.50;;;4.40;;
76896;SDS011;65856;52.178;21.176;2023-11-18T09:41:09;10.70;;;5.40;;
76896;SDS011;65856;52.178;21.176;2023-11-18T09:43:44;14.60;;;6.60;;
76896;SDS011;65856;52.178;21.176;2023-11-18T09:46:20;11.40;;;5.80;;
76896;SDS011;65856;52.178;21.176;2023-11-18T09:48:53;9.60;;;5.20;;
76896;SDS011;65856;52.178;21.176;2023-11-18T09:51:41;9.00;;;5.20;;
76896;SDS011;65856;52.178;21.176;2023-11-18T09:54:34;11.60;;;5.40;;
76896;SDS011;65856;52.178;21.176;2023-11-18T09:57:32;11.40;;;5.70;;
76896;SDS011;65856;52.178;21.176;2023-11-18T10:00:06;15.10;;;5.90;;
76896;SDS011;65856;52.178;21.176;2023-11-18T10:02:45;10.50;;;5.30;;
76896;SDS011;65856;52.178;21.176;2023-11-18T10:05:13;12.00;;;5.70;;
76896;SDS011;65856;52.178;21.176;2023-11-18T10:07:42;8.60;;;5.10;;
76896;SDS011;65856;52.178;21.176;2023-11-18T10:10:08;15.60;;;6.30;;
76896;SDS011;65856;52.178;21.176;2023-11-18T10:12:50;13.10;;;5.30;;
76896;SDS011;65856;52.178;21.176;2023-11-18T10:15:26;12.60;;;6.20;;
76896;SDS011;65856;52.178;21.176;2023-11-18T10:17:52;9.60;;;5.50;;
76896;SDS011;65856;52.178;21.176;2023-11-18T10:23:18;7.80;;;4.60;;
76896;SDS011;65856;52.178;21.176;2023-11-18T10:25:53;13.00;;;5.40;;
76896;SDS011;65856;52.178;21.176;2023-11-18T10:28:27;15.80;;;6.60;;
76896;SDS011;65856;52.178;21.176;2023-11-18T10:31:04;11.10;;;5.60;;
76896;SDS011;65856;52.178;21.176;2023-11-18T10:33:38;8.20;;;5.30;;
76896;SDS011;65856;52.178;21.176;2023-11-18T10:36:20;10.60;;;5.70;;
76896;SDS011;65856;52.178;21.176;2023-11-18T10:38:49;10.20;;;5.60;;
76896;SDS011;65856;52.178;21.176;2023-11-18T10:41:18;10.30;;;5.60;;
76896;SDS011;65856;52.178;21.176;2023-11-18T10:43:47;9.50;;;5.90;;
76896;SDS011;65856;52.178;21.176;2023-11-18T10:46:16;10.60;;;6.50;;
76896;SDS011;65856;52.178;21.176;2023-11-18T10:48:44;10.20;;;6.30;;
76896;SDS011;65856;52.178;21.176;2023-11-18T10:51:16;9.40;;;5.70;;
76896;SDS011;65856;52.178;21.176;2023-11-18T10:53:47;12.30;;;6.60;;
76896;SDS011;65856;52.178;21.176;2023-11-18T10:56:24;11.90;;;6.70;;
76896;SDS011;65856;52.178;21.176;2023-11-18T10:58:56;11.30;;;6.20;;
76896;SDS011;65856;52.178;21.176;2023-11-18T11:01:34;13.20;;;6.70;;
76896;SDS011;65856;52.178;21.176;2023-11-18T11:04:16;10.70;;;5.90;;
76896;SDS011;65856;52.178;21.176;2023-11-18T11:06:49;11.80;;;6.90;;
76896;SDS011;65856;52.178;21.176;2023-11-18T11:09:19;11.20;;;6.40;;
76896;SDS011;65856;52.178;21.176;2023-11-18T11:11:57;10.20;;;6.40;;
76896;SDS011;65856;52.178;21.176;2023-11-18T11:14:34;11.20;;;5.90;;
76896;SDS011;65856;52.178;21.176;2023-11-18T11:17:12;11.90;;;6.70;;
76896;SDS011;65856;52.178;21.176;2023-11-18T11:19:55;12.00;;;6.00;;
76896;SDS011;65856;52.178;21.176;2023-11-18T11:28:40;12.80;;;6.20;;
76896;SDS011;65856;52.178;21.176;2023-11-18T11:31:27;12.00;;;6.20;;
76896;SDS011;65856;52.178;21.176;2023-11-18T11:34:01;16.80;;;6.70;;
76896;SDS011;65856;52.178;21.176;2023-11-18T11:36:35;9.70;;;5.60;;
76896;SDS011;65856;52.178;21.176;2023-11-18T11:39:08;12.40;;;6.10;;
76896;SDS011;65856;52.178;21.176;2023-11-18T11:41:50;10.80;;;5.50;;
76896;SDS011;65856;52.178;21.176;2023-11-18T11:44:19;16.90;;;6.70;;
76896;SDS011;65856;52.178;21.176;2023-11-18T11:46:49;14.10;;;7.30;;
76896;SDS011;65856;52.178;21.176;2023-11-18T11:49:22;13.50;;;6.50;;
76896;SDS011;65856;52.178;21.176;2023-11-18T11:52:15;20.80;;;7.20;;
76896;SDS011;65856;52.178;21.176;2023-11-18T11:55:07;21.10;;;8.40;;
76896;SDS011;65856;52.178;21.176;2023-11-18T11:57:39;18.30;;;7.60;;
76896;SDS011;65856;52.178;21.176;2023-11-18T12:00:11;12.00;;;6.60;;
76896;SDS011;65856;52.178;21.176;2023-11-18T12:02:48;13.40;;;6.70;;
76896;SDS011;65856;52.178;21.176;2023-11-18T12:05:17;13.10;;;6.70;;
76896;SDS011;65856;52.178;21.176;2023-11-18T12:07:52;14.00;;;7.00;;
76896;SDS011;65856;52.178;21.176;2023-11-18T12:10:21;15.50;;;7.70;;
76896;SDS011;65856;52.178;21.176;2023-11-18T12:13:09;13.40;;;7.20;;
76896;SDS011;65856;52.178;21.176;2023-11-18T12:15:53;20.10;;;7.70;;
76896;SDS011;65856;52.178;21.176;2023-11-18T12:18:22;20.50;;;9.00;;
76896;SDS011;65856;52.178;21.176;2023-11-18T12:20:49;11.80;;;7.00;;
76896;SDS011;65856;52.178;21.176;2023-11-18T12:23:21;11.70;;;6.60;;
76896;SDS011;65856;52.178;21.176;2023-11-18T12:25:50;17.10;;;8.60;;
76896;SDS011;65856;52.178;21.176;2023-11-18T12:28:24;17.70;;;9.40;;
76896;SDS011;65856;52.178;21.176;2023-11-18T12:31:00;14.10;;;7.80;;
76896;SDS011;65856;52.178;21.176;2023-11-18T12:44:01;11.40;;;6.60;;
76896;SDS011;65856;52.178;21.176;2023-11-18T12:46:54;11.90;;;6.10;;
76896;SDS011;65856;52.178;21.176;2023-11-18T12:49:44;13.10;;;6.80;;
76896;SDS011;65856;52.178;21.176;2023-11-18T12:52:15;10.90;;;6.30;;
76896;SDS011;65856;52.178;21.176;2023-11-18T12:54:44;11.70;;;6.40;;
76896;SDS011;65856;52.178;21.176;2023-11-18T12:57:16;12.60;;;7.10;;
76896;SDS011;65856;52.178;21.176;2023-11-18T12:59:44;12.20;;;6.70;;
76896;SDS011;65856;52.178;21.176;2023-11-18T13:02:11;11.80;;;6.90;;
76896;SDS011;65856;52.178;21.176;2023-11-18T13:04:46;12.50;;;7.40;;
76896;SDS011;65856;52.178;21.176;2023-11-18T13:07:18;12.90;;;7.10;;
76896;SDS011;65856;52.178;21.176;2023-11-18T13:09:46;13.30;;;7.50;;
76896;SDS011;65856;52.178;21.176;2023-11-18T13:12:14;16.00;;;8.20;;
76896;SDS011;65856;52.178;21.176;2023-11-18T13:14:43;15.80;;;8.50;;
76896;SDS011;65856;52.178;21.176;2023-11-18T13:17:13;14.60;;;7.50;;
76896;SDS011;65856;52.178;21.176;2023-11-18T13:19:43;15.50;;;8.60;;
76896;SDS011;65856;52.178;21.176;2023-11-18T13:22:13;13.00;;;7.90;;
76896;SDS011;65856;52.178;21.176;2023-11-18T13:24:41;13.30;;;8.10;;
76896;SDS011;65856;52.178;21.176;2023-11-18T13:27:14;13.50;;;7.70;;
76896;SDS011;65856;52.178;21.176;2023-11-18T13:29:44;15.20;;;8.70;;
76896;SDS011;65856;52.178;21.176;2023-11-18T13:32:14;14.50;;;8.00;;
76896;SDS011;65856;52.178;21.176;2023-11-18T13:34:40;17.10;;;9.50;;
76896;SDS011;65856;52.178;21.176;2023-11-18T13:37:07;17.20;;;9.20;;
76896;SDS011;65856;52.178;21.176;2023-11-18T13:39:36;15.10;;;9.20;;
76896;SDS011;65856;52.178;21.176;2023-11-18T13:42:20;17.20;;;9.20;;
76896;SDS011;65856;52.178;21.176;2023-11-18T13:44:48;15.60;;;8.80;;
76896;SDS011;65856;52.178;21.176;2023-11-18T13:47:18;16.30;;;9.10;;
76896;SDS011;65856;52.178;21.176;2023-11-18T13:49:45;19.40;;;10.20;;
76896;SDS011;65856;52.178;21.176;2023-11-18T13:52:15;16.40;;;8.80;;
76896;SDS011;65856;52.178;21.176;2023-11-18T13:54:42;16.50;;;9.50;;
76896;SDS011;65856;52.178;21.176;2023-11-18T13:57:11;14.60;;;8.10;;
76896;SDS011;65856;52.178;21.176;2023-11-18T13:59:39;14.30;;;7.60;;
76896;SDS011;65856;52.178;21.176;2023-11-18T14:02:09;17.20;;;9.00;;
76896;SDS011;65856;52.178;21.176;2023-11-18T14:04:35;17.20;;;9.00;;
76896;SDS011;65856;52.178;21.176;2023-11-18T14:07:03;17.50;;;8.80;;
76896;SDS011;65856;52.178;21.176;2023-11-18T14:09:31;14.20;;;7.90;;
76896;SDS011;65856;52.178;21.176;2023-11-18T14:12:01;15.50;;;8.60;;
76896;SDS011;65856;52.178;21.176;2023-11-18T14:14:30;17.10;;;9.40;;
76896;SDS011;65856;52.178;21.176;2023-11-18T14:16:55;16.80;;;8.60;;
76896;SDS011;65856;52.178;21.176;2023-11-18T14:19:23;17.50;;;9.00;;
76896;SDS011;65856;52.178;21.176;2023-11-18T14:21:53;16.30;;;9.00;;
76896;SDS011;65856;52.178;21.176;2023-11-18T14:24:19;16.20;;;9.30;;
76896;SDS011;65856;52.178;21.176;2023-11-18T14:26:48;16.20;;;9.00;;
76896;SDS011;65856;52.178;21.176;2023-11-18T14:29:13;15.30;;;8.50;;
76896;SDS011;65856;52.178;21.176;2023-11-18T14:31:39;17.40;;;9.20;;
76896;SDS011;65856;52.178;21.176;2023-11-18T14:34:05;20.90;;;10.50;;
76896;SDS011;65856;52.178;21.176;2023-11-18T14:36:31;17.50;;;8.70;;
76896;SDS011;65856;52.178;21.176;2023-11-18T14:38:57;15.50;;;8.60;;
76896;SDS011;65856;52.178;21.176;2023-11-18T14:41:25;17.00;;;8.40;;
76896;SDS011;65856;52.178;21.176;2023-11-18T14:43:52;14.90;;;7.80;;
76896;SDS011;65856;52.178;21.176;2023-11-18T14:46:18;16.40;;;8.90;;
76896;SDS011;65856;52.178;21.176;2023-11-18T14:48:44;18.90;;;9.90;;
76896;SDS011;65856;52.178;21.176;2023-11-18T14:51:10;19.00;;;10.00;;
76896;SDS011;65856;52.178;21.176;2023-11-18T14:53:36;18.90;;;10.50;;
76896;SDS011;65856;52.178;21.176;2023-11-18T14:56:05;18.70;;;10.30;;
76896;SDS011;65856;52.178;21.176;2023-11-18T14:58:32;21.50;;;10.50;;
76896;SDS011;65856;52.178;21.176;2023-11-18T15:00:58;19.70;;;10.30;;
76896;SDS011;65856;52.178;21.176;2023-11-18T15:03:25;19.20;;;11.20;;
76896;SDS011;65856;52.178;21.176;2023-11-18T15:05:51;21.10;;;11.20;;